Extreme weather reports worldwide

High gusts

Station
 
Location
 
Name
 
Wind
Knots
Gust
Knots
Vis
SM
Temp/Dew
C
Baro
inHg
METAR
 
CWVH 6 48 -29/-32 30.00 CWVH 050300Z AUTO 31006G48KT 310V080 ////SM ////// M29/M32 A3000
SNN EINN Shannon, IE Shannon Airport 30 42 1.99 6/5 29.41 EINN 050400Z 21030G42KT 3200 RA FEW012 BKN015 BKN020 06/05 Q0996 NOSIG
K0CO 24 41 -12/-15 29.86 K0CO 050355Z AUTO 26024G41KT SCT013 BKN022 OVC026 M12/M15 A2986 RMK AO2 PWINO
PIZ PPIZ Point Lay, US Point Lay LRRS Airport 34 40 0.25 -24/-26 29.84 PPIZ 050356Z AUTO 05034G40KT 1/4SM -SN FZFG OVC003 M24/M27 A2984 RMK AO2 PK WND 05043/0334 SLP109 P0000 T12441267 FZRANO
EIME Baldonnel, IE Casement Air Base 28 38 6/2 29.47 EIME 050300Z 19028G38KT 9999 FEW018 06/02 Q0998

Station
 
Location
 
Name
 
Wind
Knots
Gust
Knots
Vis
SM
Temp/Dew
C
Baro
inHg
METAR
 
KTBX 21 37 -8/-21 29.86 KTBX 050355Z AUTO 20021G37KT 10SM CLR M08/M21 A2986 RMK AO2
ROTM JP Futenma Marine Corps Air Station 19 36 27/22 29.81 ROTM 050356Z 20019G36KT 9999 BKN014 OVC027 27/23 A2981 RMK PK WND 19036/42 SLP095 WND WRNG XWND ADV T02720228
MKE KMKE Milwaukee, US General Mitchell International Airport 23 35 5/3 29.84 KMKE 050352Z 02023G35KT 10SM -RA FEW007 OVC012 05/03 A2984 RMK AO2 PK WND 01037/0253 LTG DSNT W AND NW SLP109 P0004 T00500033
BEB EGPL Balivanich, GB Benbecula Airport 23 34 8/3 29.53 EGPL 050350Z AUTO 14023G34KT 9999 OVC010/// 08/03 Q1000
KMWN 26 34 0.13 -1/-1 KMWN 050357Z 20026G34KT 1/8SM FZFG VV003 M01/M01 RMK VRY LGT GICG
COU KCOU Columbia, US Columbia Regional Airport 20 33 6 17/14 29.78 KCOU 050354Z AUTO 18020G33KT 6SM -TSRA FEW031 BKN065 OVC110 18/14 A2978 RMK AO2 PK WND 18033/0351 LTG DSNT N AND NE RAB38 TSB32 SLP078 P0004 T01780144
NGU KNGU Norfolk, US Norfolk Naval Station (Chambers Field) 19 32 2 11/10 30.02 KNGU 050359Z 04019G32KT 2SM RA BR OVC004 11/11 A3002 RMK AO2 PK WND 05032/0357 PRESFR SLP165 P0017 T01110106
AIA KAIA Alliance, US Alliance Municipal Airport 20 31 0.5 0/0 29.93 KAIA 050353Z AUTO 20020G31KT 1/2SM SN FG VV005 00/00 A2993 RMK AO2 PK WND 20031/0353 SNB14 SLP153 P0000 T00000000 $
RAC KRAC Racine, US John H Batten Airport 23 31 5/2 29.86 KRAC 050353Z AUTO 01023G31KT 10SM BKN008 OVC030 05/03 A2986 RMK AO2 PK WND 01035/0313 LTG DSNT S AND NW RAB01E27 TSB11E26 CIG 006V010 SLP114 P0008 T00500028
NTU KNTU Virginia Beach, US Oceana Naval Air Station 18 31 3 12/11 29.99 KNTU 050356Z 06018G31KT 3SM -RA BR OVC004 12/12 A2999 RMK AO2 PK WND 05032/0309 VIS 2 1/2 RWY 5R SLP159 P0033 T01220117
KMYP 27 31 -9/-11 30.06 KMYP 050357Z AUTO 27027G31KT M09/M11 A3006 RMK AO2 PWINO
ORF KORF Norfolk, US Norfolk International Airport 20 30 2.5 11/10 30.00 KORF 050351Z 05020G30KT 2 1/2SM +RA BR OVC003 11/11 A3000 RMK AO2 PK WND 04030/0349 SLP157 P0018 T01110106
WAL KWAL Wallops Island, US Wallops Flight Facility Airport 21 30 6 8/8 30.16 KWAL 050354Z AUTO 05021G30KT 6SM -RA BR OVC004 09/09 A3016 RMK AO2 PK WND 05031/0330 SLP209 P0005 T00890089
K7BM 19 29 -1/-12 29.91 K7BM 050355Z AUTO 28019G29KT 10SM BKN043 BKN049 M01/M12 A2991 RMK AO2
MLL PADM Marshall, US Marshall Don Hunter Sr Airport 24 29 7 -1/-2 29.70 PADM 050356Z AUTO 16024G29KT 7SM SCT030 BKN040 OVC090 M01/M03 A2970 RMK AO2 PK WND 16029/0351 SNE40 SLP064 P0000 T10111028 FZRANO
RMQ RCMQ Taichung City, TW Taichung Ching Chuang Kang Airport 18 28 30/17 29.82 RCMQ 050330Z 21018G28KT 9999 FEW010 SCT025 BKN060 30/17 Q1010 NOSIG RMK A2985
DKK KDKK Dunkirk, US Chautauqua County-Dunkirk Airport 16 28 17/6 30.06 KDKK 050353Z AUTO 17016G28KT 10SM CLR 17/06 A3006 RMK AO2 PK WND 17032/0257 SLP177 T01720061 $
KLWD 18 28 6/2 29.88 KLWD 050353Z AUTO 04018G28KT 10SM OVC045 06/02 A2988 RMK AO2 PK WND 04031/0304 LTG DSNT SE SLP121 T00610022
KEHY 22 28 -6/-13 29.88 KEHY 050355Z AUTO 24022G28KT 10SM SCT030 OVC039 M06/M13 A2988 RMK AO2 PWINO
SHG PAGH Shungnak, US Shungnak Airport 21 28 5 -8/-11 29.76 PAGH 050356Z AUTO 11021G28KT 5SM -SN BR OVC036 M09/M11 A2976 RMK AO2 PK WND 10029/0324 SLP088 P0000 T10891111 FZRANO $
YTL CYTL Big Trout Lake, CA Big Trout Lake Airport 15 27 3 -11/-13 29.76 CYTL 050350Z AUTO 27015G27KT 3SM -SN OVC039 M11/M13 A2976 RMK SLP100
MFV KMFV Melfa, US Accomack County Airport 18 27 4 9/8 30.13 KMFV 050355Z AUTO 07018G27KT 4SM +RA OVC005 09/09 A3013 RMK AO2 P0012 T00920085
EHM PAEH Cape Newenham, US Cape Newenham LRRS Airport 18 27 0/-4 29.73 PAEH 050355Z AUTO 02018G27KT 10SM OVC065 01/M04 A2973 RMK AO2 PK WND 01033/0313 SHRAB0243E0321 SLP076 T00061045
CEC KCEC Crescent City, US Jack Mc Namara Field Airport 17 27 7 8/7 29.93 KCEC 050356Z AUTO 15017G27KT 7SM RA BKN021 OVC033 09/07 A2993 RMK AO2 PK WND 15028/0332 SLP134 P0009 T00890072
ADK PADK Adak Island, US Adak Airport 18 27 2/-1 29.75 PADK 050356Z AUTO 25018G27KT 10SM FEW032 BKN049 BKN055 02/M02 A2975 RMK AO2 PK WND 25029/0317 RAB30E39UPB39E44 SLP073 P0000 T00221017 FZRANO $
MOU PAMO Mountain Village, US Mountain Village Airport 21 27 / 29.60 PAMO 050356Z AUTO 15021G27KT -SN A2960 RMK AO2 PK WND 15027/0351 SNB51 SLPNO FZRANO $
LNY PHNY Lanai City, US Lanai Airport 12 27 20/17 30.12 PHNY 050356Z AUTO 07012G27KT 10SM CLR 21/17 A3012 RMK AO2 PK WND 03035/0320 SLP179 T02060172
HNC KHSE Hatteras, US Billy Mitchell Airport 13 27 6 15/ 30.04 KHSE 050400Z AUTO 21013G27KT 6SM HZ BKN005 OVC013 15/ A3004 RMK AO2 PK WND 21027/0356 T0150 $
MHV KMHV Mojave, US Mojave Airport 21 27 7/-1 30.03 KMHV 050400Z AUTO 29021G27KT 10SM CLR 07/M01 A3003 RMK AO2
BFS EGAA Belfast, GB Belfast International Airport 16 26 6/3 29.50 EGAA 050350Z AUTO 15016G26KT 9999 NCD 06/03 Q0999
JKH LGHI Chios Island, GR Chios Island National Airport 15 26 15/13 29.68 LGHI 050350Z 18015G26KT 9999 -TSRA FEW016CB SCT020 15/13 Q1005
KRYV Watertown, US Watertown Municipal Airport 17 26 2.5 4/4 29.87 KRYV 050355Z AUTO 03017G26KT 2 1/2SM TSRA BKN011 BKN027 OVC036 04/04 A2987 RMK AO2 LTG DSNT ALQS P0017 T00410041
LFRL Lanvéoc/Poulmic, FR Lanvéoc-Poulmic Air Base 14 26 7/4 29.82 LFRL 050400Z AUTO 27014G26KT 9999 FEW019 BKN029 BKN045 07/04 Q1010
CPIN 18 25 -26/-28 29.91 CPIN 050300Z AUTO 30018G25KT ////SM ////// M26/M28 A2991
YZE CYZE Gore Bay, CA Gore Bay Manitoulin Airport 16 25 9 7/5 29.85 CYZE 050300Z AUTO 31016G25KT 210V320 9SM SCT060 BKN080 07/05 A2985 RMK SLP117
MMD ROMD Minamidaitō, JP Minami-Daito Airport 14 25 25/22 29.91 ROMD 050300Z AUTO 17014G25KT 9999 BKN014 BKN017 OVC020 25/22 Q1013
ELS FAEL East London, ZA Ben Schoeman Airport 15 25 20/13 29.68 FAEL 050349Z 28015G25KT CAVOK 20/13 Q1005
RIW KRIW Riverton, US Riverton Regional Airport 16 25 -5/-16 29.88 KRIW 050353Z AUTO 24016G25KT 10SM CLR M05/M17 A2988 RMK AO2 PK WND 24028/0327 SLP158 T10501167
RFD KRFD Chicago/Rockford, US Chicago Rockford International Airport 14 25 6/3 29.87 KRFD 050354Z 36014G25KT 10SM BKN012 BKN018 OVC033 07/04 A2987 RMK AO2 PK WND 02029/0334 LTG DSNT W-N RAB12E24 SLP117 P0000 T00670039 $
K6S0 20 25 -4/-7 29.81 K6S0 050355Z AUTO 25020G25KT 10SM FEW031 FEW080 SCT100 M04/M07 A2981 RMK A01
KAEJ Buena Vista, US Central Colorado Regional Airport 13 25 2/-12 29.88 KAEJ 050355Z AUTO 24013G25KT 10SM CLR 02/M12 A2988 RMK AO2 T00211121
KC99 17 25 -8/-13 29.86 KC99 050355Z AUTO 28017G25KT 10SM SCT033 M08/M13 A2986 RMK AO2
KCPW 18 25 -8/-12 30.05 KCPW 050355Z AUTO 22018G25KT 10SM CLR M08/M12 A3005 RMK AO2
FEP KFEP Freeport, US Albertus Airport 14 25 5/3 29.91 KFEP 050355Z AUTO 01014G25KT 05/04 A2991 RMK AO2 LTG DSNT ALQS T00510035
VYS KVYS Peru, US Illinois Valley Regional Airport-Walter A Duncan Field 18 25 11/7 29.82 KVYS 050355Z AUTO 28018G25KT 10SM SCT017 SCT033 BKN043 11/08 A2982 RMK AO2 T01130075 TSNO